createdAt,value
2024-03-08T00:00:15.394Z,68.07
2024-03-08T00:02:44.181Z,68.09
2024-03-08T00:05:11.701Z,68.12
2024-03-08T00:07:39.924Z,68.21
2024-03-08T00:10:12.540Z,68.35
2024-03-08T00:12:44.755Z,68.55
2024-03-08T00:15:15.101Z,68.11
2024-03-08T00:17:42.767Z,67.73
2024-03-08T00:20:09.910Z,67.35
2024-03-08T00:22:40.017Z,67.43
2024-03-08T00:25:11.044Z,67.34
2024-03-08T00:27:39.607Z,67.59
2024-03-08T00:30:07.760Z,67.05
2024-03-08T00:32:35.020Z,67.01
2024-03-08T00:35:01.969Z,67.10
2024-03-08T00:37:28.792Z,67.53
2024-03-08T00:39:55.551Z,67.34
2024-03-08T00:42:22.352Z,67.13
2024-03-08T00:44:53.121Z,67.14
2024-03-08T00:47:20.501Z,67.15
2024-03-08T00:49:47.990Z,67.05
2024-03-08T00:52:16.052Z,66.87
2024-03-08T00:54:44.828Z,67.11
2024-03-08T00:57:13.174Z,66.87
2024-03-08T00:59:40.503Z,67.08
2024-03-08T01:02:07.620Z,67.30
2024-03-08T01:04:34.787Z,67.46
2024-03-08T01:07:02.155Z,67.37
2024-03-08T01:09:30.164Z,66.98
2024-03-08T01:11:57.489Z,66.87
2024-03-08T01:14:26.863Z,67.06
2024-03-08T01:16:54.241Z,67.03
2024-03-08T01:19:21.008Z,66.86
2024-03-08T01:21:47.904Z,66.87
2024-03-08T01:24:14.844Z,66.81
2024-03-08T01:26:41.853Z,67.00
2024-03-08T01:29:09.526Z,67.30
2024-03-08T01:31:38.002Z,67.01
2024-03-08T01:34:05.002Z,66.81
2024-03-08T01:36:31.849Z,66.74
2024-03-08T01:38:59.135Z,66.77
2024-03-08T01:41:26.424Z,66.72
2024-03-08T01:43:54.308Z,66.46
2024-03-08T01:46:25.831Z,66.01
2024-03-08T01:48:53.494Z,66.06
2024-03-08T01:51:21.492Z,66.31
2024-03-08T01:53:49.993Z,66.52
2024-03-08T01:56:19.440Z,66.67
2024-03-08T01:58:48.704Z,66.44
2024-03-08T02:01:16.864Z,66.29
2024-03-08T02:03:45.953Z,66.23
2024-03-08T02:06:16.150Z,65.89
2024-03-08T02:08:46.686Z,66.06
2024-03-08T02:11:14.800Z,65.53
2024-03-08T02:13:41.907Z,65.30
2024-03-08T02:16:09.753Z,65.62
2024-03-08T02:18:38.272Z,65.63
2024-03-08T02:21:06.864Z,65.73
2024-03-08T02:23:34.472Z,65.84
2024-03-08T02:26:01.688Z,66.19
2024-03-08T02:28:28.915Z,65.95
2024-03-08T02:30:57.583Z,65.95
2024-03-08T02:33:26.322Z,65.55
2024-03-08T02:35:53.265Z,65.51
2024-03-08T02:38:22.536Z,65.39
2024-03-08T02:40:51.225Z,65.16
2024-03-08T02:43:19.430Z,65.56
2024-03-08T02:45:47.296Z,65.85
2024-03-08T02:48:15.447Z,65.13
2024-03-08T02:50:44.015Z,65.00
2024-03-08T02:53:12.526Z,64.08
2024-03-08T02:55:40.357Z,64.17
2024-03-08T02:58:09.998Z,64.16
2024-03-08T03:00:37.982Z,64.06
2024-03-08T03:03:05.477Z,63.90
2024-03-08T03:05:32.599Z,63.06
2024-03-08T03:07:59.624Z,63.22
2024-03-08T03:10:27.103Z,63.18
2024-03-08T03:12:54.233Z,63.53
2024-03-08T03:15:21.323Z,63.23
2024-03-08T03:17:54.940Z,63.31
2024-03-08T03:20:27.908Z,63.19
2024-03-08T03:22:55.254Z,63.38
2024-03-08T03:25:30.199Z,63.35
2024-03-08T03:27:57.945Z,63.53
2024-03-08T03:30:27.966Z,63.55
2024-03-08T03:33:01.860Z,63.56
2024-03-08T03:35:31.605Z,63.33
2024-03-08T03:38:24.214Z,63.32
2024-03-08T03:40:53.695Z,63.30
2024-03-08T03:43:20.552Z,63.40
2024-03-08T03:45:47.311Z,63.30
2024-03-08T03:48:14.566Z,63.22
2024-03-08T03:50:41.857Z,63.34
2024-03-08T03:53:10.606Z,63.10
2024-03-08T03:55:40.724Z,62.88
2024-03-08T03:58:09.275Z,62.92
2024-03-08T04:00:36.173Z,62.74
2024-03-08T04:03:03.062Z,62.79
2024-03-08T04:05:30.170Z,62.60
2024-03-08T04:07:56.973Z,62.80
2024-03-08T04:10:23.719Z,62.74
2024-03-08T04:12:50.916Z,62.66
2024-03-08T04:15:18.017Z,62.43
2024-03-08T04:17:47.324Z,62.43
2024-03-08T04:20:18.298Z,62.58
2024-03-08T04:22:48.295Z,62.43
2024-03-08T04:25:15.048Z,62.22
2024-03-08T04:27:42.078Z,62.76
2024-03-08T04:30:09.908Z,62.56
2024-03-08T04:32:37.300Z,62.60
2024-03-08T04:35:05.161Z,62.42
2024-03-08T04:37:32.426Z,62.11
2024-03-08T04:40:00.583Z,62.44
2024-03-08T04:42:34.256Z,62.32
2024-03-08T04:45:02.142Z,62.50
2024-03-08T04:47:29.079Z,62.39
2024-03-08T04:49:56.628Z,62.24
2024-03-08T04:52:23.707Z,62.06
2024-03-08T04:54:50.606Z,62.23
2024-03-08T04:57:20.015Z,62.23
2024-03-08T04:59:47.421Z,62.38
2024-03-08T05:02:14.504Z,62.49
2024-03-08T05:04:41.261Z,62.44
2024-03-08T05:07:08.874Z,62.26
2024-03-08T05:09:37.411Z,62.22
2024-03-08T05:12:04.608Z,62.18
2024-03-08T05:14:31.661Z,62.26
2024-03-08T05:16:58.461Z,61.86
2024-03-08T05:19:25.427Z,61.82
2024-03-08T05:21:52.345Z,62.22
2024-03-08T05:24:19.774Z,62.14
2024-03-08T05:26:48.070Z,62.28
2024-03-08T05:29:15.872Z,62.16
2024-03-08T05:31:51.638Z,62.29
2024-03-08T05:34:18.765Z,62.46
2024-03-08T05:36:46.289Z,62.53
2024-03-08T05:39:14.803Z,62.49
2024-03-08T05:41:42.191Z,62.32
2024-03-08T05:44:10.164Z,62.21
2024-03-08T05:46:37.732Z,62.44
2024-03-08T05:49:06.885Z,62.34
2024-03-08T05:51:37.063Z,62.17
2024-03-08T05:54:11.174Z,62.21
2024-03-08T05:56:39.579Z,62.25
2024-03-08T05:59:06.323Z,62.11
2024-03-08T06:01:33.313Z,62.16
2024-03-08T06:04:00.134Z,62.07
2024-03-08T06:06:27.478Z,62.19
2024-03-08T06:08:54.447Z,62.10
2024-03-08T06:11:21.978Z,61.81
2024-03-08T06:13:49.551Z,62.19
2024-03-08T06:16:16.803Z,62.14
2024-03-08T06:18:43.708Z,62.33
2024-03-08T06:21:12.943Z,61.86
2024-03-08T06:23:40.147Z,62.07
2024-03-08T06:26:07.550Z,62.12
2024-03-08T06:28:36.049Z,62.13
2024-03-08T06:31:03.958Z,62.16
2024-03-08T06:33:33.980Z,62.10
2024-03-08T06:36:00.846Z,62.04
2024-03-08T06:38:28.098Z,61.95
2024-03-08T06:40:55.896Z,61.60
2024-03-08T06:43:23.305Z,62.09
2024-03-08T06:45:50.299Z,62.08
2024-03-08T06:48:18.472Z,62.29
2024-03-08T06:50:46.608Z,62.01
2024-03-08T06:53:14.767Z,61.98
2024-03-08T06:55:41.947Z,62.00
2024-03-08T06:58:08.860Z,61.73
2024-03-08T07:00:35.571Z,61.63
2024-03-08T07:03:02.369Z,61.79
2024-03-08T07:05:31.990Z,61.49
2024-03-08T07:07:59.631Z,61.57
2024-03-08T07:10:26.798Z,61.62
2024-03-08T07:12:56.754Z,61.58
2024-03-08T07:15:24.806Z,61.19
2024-03-08T07:17:54.136Z,61.29
2024-03-08T07:20:21.418Z,61.65
2024-03-08T07:22:54.148Z,61.70
2024-03-08T07:25:22.095Z,61.40
2024-03-08T07:27:50.317Z,61.34
2024-03-08T07:30:44.242Z,61.58
2024-03-08T07:33:15.245Z,61.44
2024-03-08T07:35:43.596Z,61.75
2024-03-08T07:38:11.438Z,61.37
2024-03-08T07:40:46.147Z,61.40
2024-03-08T07:43:13.166Z,61.66
2024-03-08T07:45:40.047Z,62.07
2024-03-08T07:48:11.595Z,61.60
2024-03-08T07:50:40.793Z,61.44
2024-03-08T07:53:08.937Z,61.52
2024-03-08T07:55:36.473Z,61.54
2024-03-08T07:58:04.148Z,61.30
2024-03-08T08:00:32.937Z,61.29
2024-03-08T08:03:00.061Z,61.25
2024-03-08T08:05:27.686Z,60.92
2024-03-08T08:07:55.185Z,61.09
2024-03-08T08:10:26.921Z,61.21
2024-03-08T08:12:54.029Z,60.91
2024-03-08T08:15:21.712Z,61.11
2024-03-08T08:17:53.173Z,60.95
2024-03-08T08:20:20.113Z,60.99
2024-03-08T08:22:47.252Z,60.78
2024-03-08T08:25:17.103Z,61.00
2024-03-08T08:27:43.965Z,61.03
2024-03-08T08:30:12.708Z,60.81
2024-03-08T08:32:45.857Z,60.64
2024-03-08T08:35:13.784Z,60.68
2024-03-08T08:37:41.500Z,60.70
2024-03-08T08:40:16.517Z,60.75
2024-03-08T08:42:44.796Z,60.81
2024-03-08T08:45:16.356Z,60.32
2024-03-08T08:47:48.469Z,60.55
2024-03-08T08:50:15.556Z,60.69
2024-03-08T08:52:45.079Z,60.48
2024-03-08T08:55:16.225Z,60.59
2024-03-08T08:57:43.557Z,60.58
2024-03-08T09:00:16.296Z,60.62
2024-03-08T09:02:43.932Z,60.18
2024-03-08T09:05:11.160Z,60.21
2024-03-08T09:07:38.800Z,60.00
2024-03-08T09:12:35.584Z,59.83
2024-03-08T09:15:02.311Z,59.88
2024-03-08T09:17:29.078Z,59.83
2024-03-08T09:19:55.904Z,59.81
2024-03-08T09:22:23.679Z,60.15
2024-03-08T09:24:50.553Z,59.09
2024-03-08T09:27:17.259Z,58.57
2024-03-08T09:29:45.315Z,58.13
2024-03-08T09:32:13.000Z,58.21
2024-03-08T09:34:39.938Z,57.95
2024-03-08T09:37:06.658Z,58.15
2024-03-08T09:39:35.040Z,57.71
2024-03-08T09:42:02.869Z,57.83
2024-03-08T09:44:30.306Z,57.71
2024-03-08T09:46:59.618Z,57.94
2024-03-08T09:49:26.666Z,57.66
2024-03-08T09:51:54.108Z,57.39
2024-03-08T09:54:25.987Z,56.51
2024-03-08T09:56:54.136Z,55.68
2024-03-08T09:59:26.651Z,56.17
2024-03-08T10:01:53.623Z,56.58
2024-03-08T10:04:21.366Z,56.94
2024-03-08T10:06:51.086Z,56.58
2024-03-08T10:09:18.158Z,56.03
2024-03-08T10:11:45.007Z,56.98
2024-03-08T10:14:12.190Z,57.22
2024-03-08T10:16:40.860Z,56.60
2024-03-08T10:19:08.202Z,57.39
2024-03-08T10:21:35.068Z,57.43
2024-03-08T10:24:04.399Z,57.52
2024-03-08T10:26:31.720Z,57.91
2024-03-08T10:28:59.436Z,57.20
2024-03-08T10:31:26.991Z,58.13
2024-03-08T10:33:54.113Z,57.93
2024-03-08T10:36:21.098Z,57.84
2024-03-08T10:38:49.142Z,57.78
2024-03-08T10:41:17.926Z,57.37
2024-03-08T10:44:00.413Z,57.62
2024-03-08T10:46:52.459Z,57.75
2024-03-08T10:49:26.713Z,57.48
2024-03-08T10:51:54.659Z,57.24
2024-03-08T10:54:22.217Z,57.51
2024-03-08T10:56:50.315Z,57.28
2024-03-08T10:59:18.516Z,57.15
2024-03-08T11:01:45.467Z,57.18
2024-03-08T11:04:12.454Z,56.78
2024-03-08T11:06:39.292Z,56.92
2024-03-08T11:09:31.104Z,56.77
2024-03-08T11:12:21.024Z,57.33
2024-03-08T11:14:52.318Z,56.80
2024-03-08T11:17:23.765Z,57.05
2024-03-08T11:19:50.930Z,56.93
2024-03-08T11:22:32.687Z,57.29
2024-03-08T11:25:02.782Z,56.99
2024-03-08T11:27:31.634Z,57.11
2024-03-08T11:30:18.892Z,57.30
2024-03-08T11:32:47.774Z,57.42
2024-03-08T11:35:24.514Z,57.52
2024-03-08T11:37:52.337Z,57.71
2024-03-08T11:40:21.651Z,57.41
2024-03-08T11:42:49.790Z,57.36
2024-03-08T11:45:19.030Z,57.25
2024-03-08T11:47:48.859Z,57.83
2024-03-08T11:50:16.432Z,57.74
2024-03-08T11:52:44.866Z,57.70
2024-03-08T11:55:14.214Z,56.66
2024-03-08T11:57:43.725Z,56.27
2024-03-08T12:00:27.806Z,55.60
2024-03-08T12:03:05.760Z,55.38
2024-03-08T12:05:34.720Z,54.71
2024-03-08T12:08:03.318Z,55.20
2024-03-08T12:10:30.721Z,54.26
2024-03-08T12:13:04.738Z,54.18
2024-03-08T12:15:35.141Z,53.57
2024-03-08T12:18:02.597Z,54.47
2024-03-08T12:20:33.490Z,54.20
2024-03-08T12:23:01.153Z,54.35
2024-03-08T12:25:33.463Z,53.93
2024-03-08T12:28:12.852Z,54.59
2024-03-08T12:31:00.874Z,53.94
2024-03-08T12:33:28.495Z,53.38
2024-03-08T12:35:57.249Z,53.42
2024-03-08T12:38:26.379Z,52.99
2024-03-08T12:40:58.469Z,52.67
2024-03-08T12:43:25.754Z,52.95
2024-03-08T12:45:53.968Z,53.20
2024-03-08T12:48:21.985Z,53.17
2024-03-08T12:50:49.207Z,53.71
2024-03-08T12:53:16.361Z,53.08
2024-03-08T12:55:43.469Z,53.16
2024-03-08T12:58:10.673Z,53.49
2024-03-08T13:00:37.944Z,53.19
2024-03-08T13:03:05.031Z,53.48
2024-03-08T13:05:31.778Z,53.52
2024-03-08T13:07:58.970Z,54.13
2024-03-08T13:10:25.927Z,53.97
2024-03-08T13:12:54.815Z,54.21
2024-03-08T13:15:22.054Z,53.94
2024-03-08T13:17:50.238Z,53.86
2024-03-08T13:20:27.777Z,53.49
2024-03-08T13:23:00.372Z,53.77
2024-03-08T13:25:27.400Z,53.78
2024-03-08T13:27:57.535Z,54.08
2024-03-08T13:30:27.719Z,54.43
2024-03-08T13:32:55.145Z,54.11
2024-03-08T13:35:29.465Z,53.84
2024-03-08T13:37:56.810Z,54.31
2024-03-08T13:40:23.990Z,54.32
2024-03-08T13:42:50.764Z,54.86
2024-03-08T13:45:23.952Z,54.25
2024-03-08T13:47:55.601Z,54.86
2024-03-08T13:50:23.298Z,54.17
2024-03-08T13:52:54.285Z,53.82
2024-03-08T13:55:28.969Z,54.30
2024-03-08T13:57:58.984Z,54.68
2024-03-08T14:00:29.108Z,54.89
2024-03-08T14:02:56.142Z,54.62
2024-03-08T14:05:23.342Z,54.76
2024-03-08T14:07:51.171Z,54.69
2024-03-08T14:10:21.946Z,54.83
2024-03-08T14:12:51.826Z,54.79
2024-03-08T14:15:19.000Z,54.26
2024-03-08T14:17:48.464Z,54.56
2024-03-08T14:20:15.677Z,54.40
2024-03-08T14:22:42.763Z,54.66
2024-03-08T14:25:18.383Z,54.73
2024-03-08T14:27:46.822Z,54.86
2024-03-08T14:30:14.717Z,55.02
2024-03-08T14:32:43.148Z,54.78
2024-03-08T14:35:12.554Z,54.97
2024-03-08T14:37:39.716Z,55.13
2024-03-08T14:40:07.546Z,54.95
2024-03-08T14:42:34.352Z,55.16
2024-03-08T14:45:01.452Z,54.92
2024-03-08T14:47:29.545Z,55.02
2024-03-08T14:49:56.983Z,54.98
2024-03-08T14:52:30.411Z,54.76
2024-03-08T14:54:58.027Z,54.84
2024-03-08T14:57:25.144Z,54.83
2024-03-08T14:59:52.206Z,55.17
2024-03-08T15:02:21.013Z,55.21
2024-03-08T15:04:58.744Z,54.97
2024-03-08T15:07:31.343Z,55.14
2024-03-08T15:09:58.381Z,55.42
2024-03-08T15:12:27.611Z,55.32
2024-03-08T15:14:56.487Z,55.09
2024-03-08T15:17:24.124Z,55.33
2024-03-08T15:19:51.782Z,55.68
2024-03-08T15:22:19.240Z,55.31
2024-03-08T15:24:46.306Z,55.78
2024-03-08T15:27:13.595Z,55.85
2024-03-08T15:29:40.369Z,55.52
2024-03-08T15:32:08.075Z,55.39
2024-03-08T15:34:39.651Z,55.47
2024-03-08T15:37:08.043Z,55.19
2024-03-08T15:39:35.316Z,55.63
2024-03-08T15:42:02.176Z,55.69
2024-03-08T15:44:30.012Z,55.68
2024-03-08T15:46:57.316Z,55.79
2024-03-08T15:49:25.825Z,55.93
2024-03-08T15:51:52.768Z,56.01
2024-03-08T15:54:19.922Z,56.47
2024-03-08T15:56:46.733Z,56.25
2024-03-08T15:59:13.764Z,56.43
2024-03-08T16:01:41.003Z,56.59
2024-03-08T16:04:08.274Z,56.71
2024-03-08T16:06:37.610Z,56.59
2024-03-08T16:09:05.198Z,56.50
2024-03-08T16:11:34.493Z,56.81
2024-03-08T16:14:04.523Z,56.61
2024-03-08T16:16:33.198Z,56.88
2024-03-08T16:19:00.115Z,56.54
2024-03-08T16:21:28.226Z,56.79
2024-03-08T16:23:54.998Z,56.80
2024-03-08T16:26:24.320Z,57.27
2024-03-08T16:28:51.219Z,57.27
2024-03-08T16:31:18.061Z,57.22
2024-03-08T16:33:45.895Z,57.49
2024-03-08T16:36:15.059Z,57.32
2024-03-08T16:38:45.896Z,57.36
2024-03-08T16:41:14.150Z,57.21
2024-03-08T16:43:41.253Z,57.17
2024-03-08T16:46:08.120Z,57.36
2024-03-08T16:48:35.386Z,57.08
2024-03-08T16:51:02.330Z,57.06
2024-03-08T16:53:29.091Z,57.53
2024-03-08T16:55:58.591Z,57.41
2024-03-08T16:58:25.704Z,57.65
2024-03-08T17:00:52.465Z,57.68
2024-03-08T17:03:19.685Z,57.71
2024-03-08T17:05:55.176Z,57.67
2024-03-08T17:08:23.337Z,57.49
2024-03-08T17:10:51.074Z,57.42
2024-03-08T17:13:19.978Z,57.43
2024-03-08T17:15:50.538Z,57.46
2024-03-08T17:18:17.741Z,57.43
2024-03-08T17:20:45.457Z,57.59
2024-03-08T17:23:16.122Z,57.61
2024-03-08T17:25:44.279Z,57.85
2024-03-08T17:28:13.057Z,58.11
2024-03-08T17:30:42.161Z,58.02
2024-03-08T17:33:12.039Z,57.94
2024-03-08T17:35:39.828Z,58.41
2024-03-08T17:38:11.842Z,58.70
2024-03-08T17:40:44.605Z,58.42
2024-03-08T17:43:13.931Z,58.54
2024-03-08T17:45:46.150Z,58.55
2024-03-08T17:48:14.156Z,59.01
2024-03-08T17:50:43.102Z,58.85
2024-03-08T17:53:11.387Z,58.69
2024-03-08T17:55:41.966Z,58.99
2024-03-08T17:58:09.675Z,59.17
2024-03-08T18:00:37.004Z,58.99
2024-03-08T18:03:14.147Z,58.91
2024-03-08T18:05:44.848Z,58.95
2024-03-08T18:08:12.647Z,59.05
2024-03-08T18:10:39.654Z,59.12
2024-03-08T18:13:16.998Z,59.06
2024-03-08T18:15:44.943Z,59.10
2024-03-08T18:18:13.187Z,59.03
2024-03-08T18:20:51.208Z,58.86
2024-03-08T18:23:21.829Z,59.14
2024-03-08T18:25:50.153Z,59.10
2024-03-08T18:28:18.773Z,58.91
2024-03-08T18:30:49.672Z,58.79
2024-03-08T18:33:17.055Z,59.22
2024-03-08T18:35:45.431Z,59.16
2024-03-08T18:38:12.958Z,59.24
2024-03-08T18:40:45.718Z,59.21
2024-03-08T18:43:13.284Z,59.19
2024-03-08T18:45:40.137Z,59.37
2024-03-08T18:48:07.907Z,59.29
2024-03-08T18:50:35.612Z,59.13
2024-03-08T18:53:03.840Z,59.31
2024-03-08T18:55:33.630Z,59.53
2024-03-08T18:58:03.165Z,59.56
2024-03-08T19:00:31.068Z,59.48
2024-03-08T19:03:06.175Z,59.83
2024-03-08T19:05:36.199Z,60.25
2024-03-08T19:08:10.608Z,59.96
2024-03-08T19:10:39.317Z,59.84
2024-03-08T19:13:09.788Z,60.08
2024-03-08T19:15:36.567Z,60.32
2024-03-08T19:18:06.439Z,60.40
2024-03-08T19:20:36.993Z,60.30
2024-03-08T19:23:07.315Z,60.09
2024-03-08T19:25:39.603Z,60.34
2024-03-08T19:28:10.654Z,60.42
2024-03-08T19:30:38.584Z,60.25
2024-03-08T19:33:14.112Z,60.39
2024-03-08T19:35:42.639Z,60.49
2024-03-08T19:38:12.671Z,60.61
2024-03-08T19:40:43.040Z,60.66
2024-03-08T19:43:11.843Z,60.54
2024-03-08T19:45:44.442Z,60.48
2024-03-08T19:48:17.655Z,60.59
2024-03-08T19:50:46.799Z,60.77
2024-03-08T19:53:17.503Z,61.05
2024-03-08T19:55:50.170Z,60.92
2024-03-08T19:58:18.164Z,60.98
2024-03-08T20:00:45.543Z,61.14
2024-03-08T20:03:14.568Z,61.25
2024-03-08T20:05:44.152Z,61.18
2024-03-08T20:08:15.660Z,61.13
2024-03-08T20:10:43.621Z,61.44
2024-03-08T20:13:11.537Z,61.16
2024-03-08T20:15:43.415Z,61.57
2024-03-08T20:18:11.072Z,61.92
2024-03-08T20:20:40.906Z,62.53
2024-03-08T20:23:09.346Z,62.84
2024-03-08T20:25:39.423Z,63.34
2024-03-08T20:28:07.307Z,63.22
2024-03-08T20:30:34.139Z,63.03
2024-03-08T20:33:05.163Z,63.71
2024-03-08T20:35:37.137Z,65.37
2024-03-08T20:38:08.744Z,65.68
2024-03-08T20:40:46.697Z,65.72
2024-03-08T20:43:19.065Z,65.11
2024-03-08T20:45:47.762Z,66.55
2024-03-08T20:48:15.559Z,68.55
2024-03-08T20:50:43.612Z,67.83
2024-03-08T20:53:15.852Z,67.87
2024-03-08T20:55:44.183Z,68.75
2024-03-08T20:58:12.381Z,68.80
2024-03-08T21:00:40.068Z,69.13
2024-03-08T21:03:12.576Z,69.69
2024-03-08T21:05:39.983Z,69.80
2024-03-08T21:08:07.444Z,70.69
2024-03-08T21:10:36.811Z,69.70
2024-03-08T21:13:06.055Z,68.69
2024-03-08T21:15:33.907Z,70.37
2024-03-08T21:18:00.897Z,69.15
2024-03-08T21:20:28.830Z,69.96
2024-03-08T21:22:57.275Z,69.13
2024-03-08T21:25:30.906Z,68.30
2024-03-08T21:28:05.549Z,68.79
2024-03-08T21:30:32.655Z,68.88
2024-03-08T21:33:00.466Z,70.00
2024-03-08T21:35:27.472Z,71.19
2024-03-08T21:37:54.668Z,71.28
2024-03-08T21:40:28.748Z,70.40
2024-03-08T21:42:57.802Z,70.87
2024-03-08T21:45:35.711Z,71.11
2024-03-08T21:48:04.305Z,69.60
2024-03-08T21:50:34.681Z,69.70
2024-03-08T21:53:03.023Z,70.37
2024-03-08T21:55:31.583Z,69.45
2024-03-08T21:58:01.137Z,70.02
2024-03-08T22:00:34.099Z,69.68
2024-03-08T22:03:06.745Z,69.69
2024-03-08T22:05:34.276Z,69.28
2024-03-08T22:08:01.342Z,69.73
2024-03-08T22:10:30.875Z,69.24
2024-03-08T22:12:57.934Z,69.54
2024-03-08T22:15:25.898Z,69.03
2024-03-08T22:17:59.851Z,68.96
2024-03-08T22:20:33.522Z,69.59
2024-03-08T22:23:03.473Z,69.24
2024-03-08T22:25:32.251Z,69.45
2024-03-08T22:27:59.885Z,69.09
2024-03-08T22:30:27.135Z,69.57
2024-03-08T22:32:57.839Z,69.61
2024-03-08T22:35:26.311Z,69.19
2024-03-08T22:37:54.998Z,69.23
2024-03-08T22:40:26.743Z,68.96
2024-03-08T22:42:54.285Z,68.97
2024-03-08T22:45:21.524Z,69.03
2024-03-08T22:47:48.461Z,68.85
2024-03-08T22:50:17.097Z,68.94
2024-03-08T22:52:46.446Z,68.97
2024-03-08T22:55:20.113Z,69.27
2024-03-08T22:57:49.907Z,69.00
2024-03-08T23:00:24.382Z,69.16
2024-03-08T23:02:54.458Z,69.00
2024-03-08T23:05:23.309Z,69.35
2024-03-08T23:07:50.273Z,69.50
2024-03-08T23:10:17.418Z,69.21
2024-03-08T23:12:45.445Z,69.20
2024-03-08T23:15:16.097Z,68.63
2024-03-08T23:17:45.138Z,68.62
2024-03-08T23:20:18.282Z,68.30
2024-03-08T23:22:53.419Z,67.95
2024-03-08T23:25:24.657Z,67.89
2024-03-08T23:27:54.101Z,68.27
2024-03-08T23:30:24.011Z,68.43
2024-03-08T23:32:52.414Z,68.25
2024-03-08T23:35:22.695Z,68.16
2024-03-08T23:37:51.439Z,68.11
2024-03-08T23:40:20.987Z,67.90
2024-03-08T23:42:49.417Z,67.75
2024-03-08T23:45:17.677Z,68.23
2024-03-08T23:47:54.458Z,67.89
2024-03-08T23:50:24.272Z,68.35
2024-03-08T23:52:54.023Z,68.36
2024-03-08T23:55:28.221Z,68.65
2024-03-08T23:57:58.970Z,68.86
